sensor_id;sensor_type;location;lat;lon;timestamp;P1;durP1;ratioP1;P2;durP2;ratioP2
54139;SDS011;40046;53.254;5.900;2023-06-24T00:00:43;10.30;;;9.30;;
54139;SDS011;40046;53.254;5.900;2023-06-24T00:03:09;10.57;;;9.23;;
54139;SDS011;40046;53.254;5.900;2023-06-24T00:05:37;10.98;;;9.82;;
54139;SDS011;40046;53.254;5.900;2023-06-24T00:08:04;12.07;;;10.85;;
54139;SDS011;40046;53.254;5.900;2023-06-24T00:10:32;14.05;;;9.20;;
54139;SDS011;40046;53.254;5.900;2023-06-24T00:12:58;10.82;;;9.73;;
54139;SDS011;40046;53.254;5.900;2023-06-24T00:15:27;13.38;;;9.88;;
54139;SDS011;40046;53.254;5.900;2023-06-24T00:17:53;12.88;;;10.02;;
54139;SDS011;40046;53.254;5.900;2023-06-24T00:20:30;10.85;;;9.80;;
54139;SDS011;40046;53.254;5.900;2023-06-24T00:22:56;12.90;;;10.80;;
54139;SDS011;40046;53.254;5.900;2023-06-24T00:25:23;10.95;;;9.85;;
54139;SDS011;40046;53.254;5.900;2023-06-24T00:27:49;11.15;;;10.05;;
54139;SDS011;40046;53.254;5.900;2023-06-24T00:30:15;11.40;;;10.27;;
54139;SDS011;40046;53.254;5.900;2023-06-24T00:32:41;11.52;;;10.27;;
54139;SDS011;40046;53.254;5.900;2023-06-24T00:35:07;16.67;;;11.93;;
54139;SDS011;40046;53.254;5.900;2023-06-24T00:37:34;13.95;;;10.88;;
54139;SDS011;40046;53.254;5.900;2023-06-24T00:40:00;14.45;;;11.45;;
54139;SDS011;40046;53.254;5.900;2023-06-24T00:42:26;14.23;;;11.15;;
54139;SDS011;40046;53.254;5.900;2023-06-24T00:44:52;13.50;;;10.90;;
54139;SDS011;40046;53.254;5.900;2023-06-24T00:47:18;13.07;;;11.50;;
54139;SDS011;40046;53.254;5.900;2023-06-24T00:49:45;14.98;;;12.23;;
54139;SDS011;40046;53.254;5.900;2023-06-24T00:52:11;14.52;;;11.25;;
54139;SDS011;40046;53.254;5.900;2023-06-24T00:54:41;13.55;;;12.15;;
54139;SDS011;40046;53.254;5.900;2023-06-24T00:57:07;14.75;;;12.00;;
54139;SDS011;40046;53.254;5.900;2023-06-24T00:59:33;12.70;;;11.38;;
54139;SDS011;40046;53.254;5.900;2023-06-24T01:02:00;13.95;;;11.75;;
54139;SDS011;40046;53.254;5.900;2023-06-24T01:04:27;13.73;;;12.43;;
54139;SDS011;40046;53.254;5.900;2023-06-24T01:06:53;14.27;;;11.18;;
54139;SDS011;40046;53.254;5.900;2023-06-24T01:09:20;13.70;;;11.80;;
54139;SDS011;40046;53.254;5.900;2023-06-24T01:11:47;15.25;;;12.40;;
54139;SDS011;40046;53.254;5.900;2023-06-24T01:14:13;15.07;;;11.27;;
54139;SDS011;40046;53.254;5.900;2023-06-24T01:25:02;13.63;;;11.70;;
54139;SDS011;40046;53.254;5.900;2023-06-24T01:27:45;15.27;;;12.40;;
54139;SDS011;40046;53.254;5.900;2023-06-24T01:33:07;13.05;;;11.52;;
54139;SDS011;40046;53.254;5.900;2023-06-24T01:35:34;14.77;;;12.38;;
54139;SDS011;40046;53.254;5.900;2023-06-24T01:38:09;13.20;;;11.38;;
54139;SDS011;40046;53.254;5.900;2023-06-24T01:40:41;14.85;;;11.70;;
54139;SDS011;40046;53.254;5.900;2023-06-24T01:43:08;13.63;;;11.73;;
54139;SDS011;40046;53.254;5.900;2023-06-24T01:45:42;14.68;;;12.02;;
54139;SDS011;40046;53.254;5.900;2023-06-24T01:48:13;13.18;;;11.70;;
54139;SDS011;40046;53.254;5.900;2023-06-24T01:50:42;14.70;;;12.65;;
54139;SDS011;40046;53.254;5.900;2023-06-24T01:53:09;13.65;;;12.18;;
54139;SDS011;40046;53.254;5.900;2023-06-24T01:55:39;15.90;;;12.95;;
54139;SDS011;40046;53.254;5.900;2023-06-24T01:58:07;16.55;;;12.55;;
54139;SDS011;40046;53.254;5.900;2023-06-24T02:00:34;16.40;;;12.30;;
54139;SDS011;40046;53.254;5.900;2023-06-24T02:03:01;12.38;;;11.07;;
54139;SDS011;40046;53.254;5.900;2023-06-24T02:05:28;13.95;;;12.38;;
54139;SDS011;40046;53.254;5.900;2023-06-24T02:07:55;13.18;;;11.77;;
54139;SDS011;40046;53.254;5.900;2023-06-24T02:10:22;15.02;;;11.73;;
54139;SDS011;40046;53.254;5.900;2023-06-24T02:12:49;15.23;;;12.30;;
54139;SDS011;40046;53.254;5.900;2023-06-24T02:15:16;18.55;;;12.65;;
54139;SDS011;40046;53.254;5.900;2023-06-24T02:17:44;15.60;;;13.93;;
54139;SDS011;40046;53.254;5.900;2023-06-24T02:20:12;14.98;;;12.73;;
54139;SDS011;40046;53.254;5.900;2023-06-24T02:22:41;14.25;;;12.57;;
54139;SDS011;40046;53.254;5.900;2023-06-24T02:25:07;19.95;;;13.82;;
54139;SDS011;40046;53.254;5.900;2023-06-24T02:27:34;20.00;;;13.35;;
54139;SDS011;40046;53.254;5.900;2023-06-24T02:30:02;16.52;;;14.27;;
54139;SDS011;40046;53.254;5.900;2023-06-24T02:32:29;18.98;;;13.20;;
54139;SDS011;40046;53.254;5.900;2023-06-24T02:34:56;16.70;;;13.88;;
54139;SDS011;40046;53.254;5.900;2023-06-24T02:37:23;13.63;;;12.30;;
54139;SDS011;40046;53.254;5.900;2023-06-24T02:39:49;17.88;;;12.80;;
54139;SDS011;40046;53.254;5.900;2023-06-24T02:42:15;15.68;;;12.23;;
54139;SDS011;40046;53.254;5.900;2023-06-24T02:44:42;18.55;;;13.50;;
54139;SDS011;40046;53.254;5.900;2023-06-24T02:47:09;15.52;;;12.20;;
54139;SDS011;40046;53.254;5.900;2023-06-24T02:49:35;19.08;;;13.65;;
54139;SDS011;40046;53.254;5.900;2023-06-24T02:52:04;15.15;;;12.57;;
54139;SDS011;40046;53.254;5.900;2023-06-24T02:54:32;14.48;;;12.60;;
54139;SDS011;40046;53.254;5.900;2023-06-24T02:57:18;18.52;;;13.35;;
54139;SDS011;40046;53.254;5.900;2023-06-24T03:00:05;16.50;;;13.40;;
54139;SDS011;40046;53.254;5.900;2023-06-24T03:02:56;16.10;;;12.82;;
54139;SDS011;40046;53.254;5.900;2023-06-24T03:05:23;15.52;;;12.82;;
54139;SDS011;40046;53.254;5.900;2023-06-24T03:07:51;16.10;;;12.90;;
54139;SDS011;40046;53.254;5.900;2023-06-24T03:10:18;15.50;;;13.48;;
54139;SDS011;40046;53.254;5.900;2023-06-24T03:12:45;17.77;;;12.82;;
54139;SDS011;40046;53.254;5.900;2023-06-24T03:15:12;13.88;;;12.48;;
54139;SDS011;40046;53.254;5.900;2023-06-24T03:17:39;16.27;;;13.25;;
54139;SDS011;40046;53.254;5.900;2023-06-24T03:20:05;15.00;;;13.35;;
54139;SDS011;40046;53.254;5.900;2023-06-24T03:22:33;16.27;;;13.30;;
54139;SDS011;40046;53.254;5.900;2023-06-24T03:25:01;17.08;;;13.73;;
54139;SDS011;40046;53.254;5.900;2023-06-24T03:27:28;14.43;;;12.40;;
54139;SDS011;40046;53.254;5.900;2023-06-24T03:29:56;14.52;;;11.40;;
54139;SDS011;40046;53.254;5.900;2023-06-24T03:32:23;16.27;;;13.10;;
54139;SDS011;40046;53.254;5.900;2023-06-24T03:34:49;13.68;;;12.27;;
54139;SDS011;40046;53.254;5.900;2023-06-24T03:37:15;15.23;;;13.05;;
54139;SDS011;40046;53.254;5.900;2023-06-24T03:39:42;17.48;;;13.68;;
54139;SDS011;40046;53.254;5.900;2023-06-24T03:42:09;17.30;;;13.32;;
54139;SDS011;40046;53.254;5.900;2023-06-24T03:44:35;16.58;;;13.55;;
54139;SDS011;40046;53.254;5.900;2023-06-24T03:47:01;14.13;;;12.73;;
54139;SDS011;40046;53.254;5.900;2023-06-24T03:49:28;14.30;;;12.65;;
54139;SDS011;40046;53.254;5.900;2023-06-24T03:51:54;14.10;;;12.70;;
54139;SDS011;40046;53.254;5.900;2023-06-24T03:54:20;14.77;;;13.10;;
54139;SDS011;40046;53.254;5.900;2023-06-24T03:56:47;16.58;;;13.35;;
54139;SDS011;40046;53.254;5.900;2023-06-24T03:59:13;15.50;;;12.73;;
54139;SDS011;40046;53.254;5.900;2023-06-24T04:01:40;13.98;;;12.48;;
54139;SDS011;40046;53.254;5.900;2023-06-24T04:04:06;15.07;;;12.52;;
54139;SDS011;40046;53.254;5.900;2023-06-24T04:06:32;15.98;;;12.98;;
54139;SDS011;40046;53.254;5.900;2023-06-24T04:08:58;19.20;;;12.32;;
54139;SDS011;40046;53.254;5.900;2023-06-24T04:11:24;14.90;;;13.20;;
54139;SDS011;40046;53.254;5.900;2023-06-24T04:13:51;15.25;;;12.63;;
54139;SDS011;40046;53.254;5.900;2023-06-24T04:16:17;14.63;;;12.55;;
54139;SDS011;40046;53.254;5.900;2023-06-24T04:18:43;14.07;;;12.65;;
54139;SDS011;40046;53.254;5.900;2023-06-24T04:21:09;17.17;;;13.75;;
54139;SDS011;40046;53.254;5.900;2023-06-24T04:23:35;16.30;;;13.00;;
54139;SDS011;40046;53.254;5.900;2023-06-24T04:26:02;15.40;;;13.40;;
54139;SDS011;40046;53.254;5.900;2023-06-24T04:28:28;13.82;;;12.43;;
54139;SDS011;40046;53.254;5.900;2023-06-24T04:30:55;19.30;;;12.82;;
54139;SDS011;40046;53.254;5.900;2023-06-24T04:33:22;13.95;;;11.93;;
54139;SDS011;40046;53.254;5.900;2023-06-24T04:35:49;15.45;;;12.10;;
54139;SDS011;40046;53.254;5.900;2023-06-24T04:38:16;15.13;;;12.07;;
54139;SDS011;40046;53.254;5.900;2023-06-24T04:40:45;15.82;;;13.05;;
54139;SDS011;40046;53.254;5.900;2023-06-24T04:43:11;14.27;;;11.05;;
54139;SDS011;40046;53.254;5.900;2023-06-24T04:45:37;12.75;;;11.38;;
54139;SDS011;40046;53.254;5.900;2023-06-24T04:48:03;15.02;;;11.75;;
54139;SDS011;40046;53.254;5.900;2023-06-24T04:50:30;13.23;;;11.05;;
54139;SDS011;40046;53.254;5.900;2023-06-24T04:52:56;18.48;;;12.23;;
54139;SDS011;40046;53.254;5.900;2023-06-24T04:55:22;14.20;;;12.15;;
54139;SDS011;40046;53.254;5.900;2023-06-24T04:57:48;12.25;;;10.95;;
54139;SDS011;40046;53.254;5.900;2023-06-24T05:00:15;14.18;;;11.50;;
54139;SDS011;40046;53.254;5.900;2023-06-24T05:02:41;13.43;;;11.48;;
54139;SDS011;40046;53.254;5.900;2023-06-24T05:05:07;12.20;;;10.90;;
54139;SDS011;40046;53.254;5.900;2023-06-24T05:07:33;13.27;;;11.82;;
54139;SDS011;40046;53.254;5.900;2023-06-24T05:10:00;13.90;;;10.93;;
54139;SDS011;40046;53.254;5.900;2023-06-24T05:12:26;12.63;;;11.27;;
54139;SDS011;40046;53.254;5.900;2023-06-24T05:14:52;13.88;;;10.68;;
54139;SDS011;40046;53.254;5.900;2023-06-24T05:17:19;12.05;;;10.98;;
54139;SDS011;40046;53.254;5.900;2023-06-24T05:19:45;14.10;;;11.07;;
54139;SDS011;40046;53.254;5.900;2023-06-24T05:22:11;12.95;;;11.65;;
54139;SDS011;40046;53.254;5.900;2023-06-24T05:24:38;13.68;;;11.55;;
54139;SDS011;40046;53.254;5.900;2023-06-24T05:27:05;12.45;;;11.20;;
54139;SDS011;40046;53.254;5.900;2023-06-24T05:29:32;13.93;;;11.18;;
54139;SDS011;40046;53.254;5.900;2023-06-24T05:31:59;13.35;;;11.95;;
54139;SDS011;40046;53.254;5.900;2023-06-24T05:34:27;21.88;;;12.52;;
54139;SDS011;40046;53.254;5.900;2023-06-24T05:36:53;12.65;;;11.45;;
54139;SDS011;40046;53.254;5.900;2023-06-24T05:39:19;12.00;;;10.80;;
54139;SDS011;40046;53.254;5.900;2023-06-24T05:41:46;12.65;;;11.35;;
54139;SDS011;40046;53.254;5.900;2023-06-24T05:44:13;14.07;;;10.70;;
54139;SDS011;40046;53.254;5.900;2023-06-24T05:46:40;12.13;;;10.80;;
54139;SDS011;40046;53.254;5.900;2023-06-24T05:49:06;14.07;;;11.98;;
54139;SDS011;40046;53.254;5.900;2023-06-24T05:51:32;12.90;;;11.45;;
54139;SDS011;40046;53.254;5.900;2023-06-24T05:53:58;12.10;;;10.48;;
54139;SDS011;40046;53.254;5.900;2023-06-24T05:56:25;14.63;;;13.10;;
54139;SDS011;40046;53.254;5.900;2023-06-24T05:58:51;14.38;;;12.93;;
54139;SDS011;40046;53.254;5.900;2023-06-24T06:01:18;16.40;;;12.93;;
54139;SDS011;40046;53.254;5.900;2023-06-24T06:03:44;14.57;;;12.45;;
54139;SDS011;40046;53.254;5.900;2023-06-24T06:06:10;15.20;;;12.80;;
54139;SDS011;40046;53.254;5.900;2023-06-24T06:08:36;15.85;;;13.23;;
54139;SDS011;40046;53.254;5.900;2023-06-24T06:11:02;15.20;;;12.80;;
54139;SDS011;40046;53.254;5.900;2023-06-24T06:13:29;14.55;;;13.07;;
54139;SDS011;40046;53.254;5.900;2023-06-24T06:15:55;16.27;;;13.40;;
54139;SDS011;40046;53.254;5.900;2023-06-24T06:18:22;13.52;;;11.90;;
54139;SDS011;40046;53.254;5.900;2023-06-24T06:20:48;15.50;;;13.23;;
54139;SDS011;40046;53.254;5.900;2023-06-24T06:23:14;15.02;;;13.45;;
54139;SDS011;40046;53.254;5.900;2023-06-24T06:25:41;17.20;;;12.95;;
54139;SDS011;40046;53.254;5.900;2023-06-24T06:28:07;13.95;;;12.38;;
54139;SDS011;40046;53.254;5.900;2023-06-24T06:30:33;14.80;;;13.38;;
54139;SDS011;40046;53.254;5.900;2023-06-24T06:32:59;14.63;;;13.23;;
54139;SDS011;40046;53.254;5.900;2023-06-24T06:35:25;18.15;;;13.15;;
54139;SDS011;40046;53.254;5.900;2023-06-24T06:37:51;13.45;;;12.05;;
54139;SDS011;40046;53.254;5.900;2023-06-24T06:40:22;22.23;;;14.30;;
54139;SDS011;40046;53.254;5.900;2023-06-24T06:42:48;19.38;;;12.02;;
54139;SDS011;40046;53.254;5.900;2023-06-24T06:45:14;12.48;;;11.18;;
54139;SDS011;40046;53.254;5.900;2023-06-24T06:47:41;13.15;;;10.75;;
54139;SDS011;40046;53.254;5.900;2023-06-24T06:50:07;12.23;;;10.65;;
54139;SDS011;40046;53.254;5.900;2023-06-24T06:52:33;13.15;;;10.57;;
54139;SDS011;40046;53.254;5.900;2023-06-24T06:55:00;13.05;;;10.48;;
54139;SDS011;40046;53.254;5.900;2023-06-24T06:57:26;12.43;;;10.30;;
54139;SDS011;40046;53.254;5.900;2023-06-24T06:59:53;11.20;;;9.95;;
54139;SDS011;40046;53.254;5.900;2023-06-24T07:02:19;13.27;;;11.10;;
54139;SDS011;40046;53.254;5.900;2023-06-24T07:04:45;13.07;;;10.27;;
54139;SDS011;40046;53.254;5.900;2023-06-24T07:07:13;12.38;;;10.25;;
54139;SDS011;40046;53.254;5.900;2023-06-24T07:09:39;11.60;;;9.85;;
54139;SDS011;40046;53.254;5.900;2023-06-24T07:12:06;15.15;;;10.75;;
54139;SDS011;40046;53.254;5.900;2023-06-24T07:14:32;13.90;;;10.38;;
54139;SDS011;40046;53.254;5.900;2023-06-24T07:16:58;10.85;;;9.10;;
54139;SDS011;40046;53.254;5.900;2023-06-24T07:19:24;13.82;;;10.13;;
54139;SDS011;40046;53.254;5.900;2023-06-24T07:21:51;13.20;;;9.88;;
54139;SDS011;40046;53.254;5.900;2023-06-24T07:24:17;9.93;;;8.93;;
54139;SDS011;40046;53.254;5.900;2023-06-24T07:26:43;10.82;;;9.10;;
54139;SDS011;40046;53.254;5.900;2023-06-24T07:29:09;15.05;;;10.52;;
54139;SDS011;40046;53.254;5.900;2023-06-24T07:31:36;10.90;;;9.50;;
54139;SDS011;40046;53.254;5.900;2023-06-24T07:34:02;11.48;;;10.27;;
54139;SDS011;40046;53.254;5.900;2023-06-24T07:36:28;12.88;;;9.80;;
54139;SDS011;40046;53.254;5.900;2023-06-24T07:38:54;10.57;;;9.38;;
54139;SDS011;40046;53.254;5.900;2023-06-24T07:41:21;11.40;;;8.20;;
54139;SDS011;40046;53.254;5.900;2023-06-24T07:43:47;11.95;;;9.48;;
54139;SDS011;40046;53.254;5.900;2023-06-24T07:46:13;10.15;;;9.13;;
54139;SDS011;40046;53.254;5.900;2023-06-24T07:48:39;11.27;;;10.07;;
54139;SDS011;40046;53.254;5.900;2023-06-24T07:51:05;12.93;;;10.52;;
54139;SDS011;40046;53.254;5.900;2023-06-24T07:53:32;11.95;;;9.32;;
54139;SDS011;40046;53.254;5.900;2023-06-24T07:55:58;9.90;;;8.52;;
54139;SDS011;40046;53.254;5.900;2023-06-24T07:58:25;11.27;;;8.75;;
54139;SDS011;40046;53.254;5.900;2023-06-24T08:00:51;9.60;;;8.57;;
54139;SDS011;40046;53.254;5.900;2023-06-24T08:03:17;10.63;;;8.85;;
54139;SDS011;40046;53.254;5.900;2023-06-24T08:05:43;8.50;;;7.55;;
54139;SDS011;40046;53.254;5.900;2023-06-24T08:08:09;10.32;;;9.23;;
54139;SDS011;40046;53.254;5.900;2023-06-24T08:10:36;10.98;;;9.35;;
54139;SDS011;40046;53.254;5.900;2023-06-24T08:13:02;12.40;;;8.65;;
54139;SDS011;40046;53.254;5.900;2023-06-24T08:15:28;9.27;;;7.63;;
54139;SDS011;40046;53.254;5.900;2023-06-24T08:17:54;11.20;;;7.47;;
54139;SDS011;40046;53.254;5.900;2023-06-24T08:20:21;12.13;;;8.13;;
54139;SDS011;40046;53.254;5.900;2023-06-24T08:22:47;10.68;;;8.32;;
54139;SDS011;40046;53.254;5.900;2023-06-24T08:25:13;9.07;;;7.18;;
54139;SDS011;40046;53.254;5.900;2023-06-24T08:27:39;10.45;;;6.93;;
54139;SDS011;40046;53.254;5.900;2023-06-24T08:30:06;11.40;;;8.80;;
54139;SDS011;40046;53.254;5.900;2023-06-24T08:32:32;11.30;;;8.20;;
54139;SDS011;40046;53.254;5.900;2023-06-24T08:34:59;9.05;;;7.95;;
54139;SDS011;40046;53.254;5.900;2023-06-24T08:37:25;13.45;;;8.50;;
54139;SDS011;40046;53.254;5.900;2023-06-24T08:39:51;9.20;;;7.60;;
54139;SDS011;40046;53.254;5.900;2023-06-24T08:42:17;13.50;;;6.80;;
54139;SDS011;40046;53.254;5.900;2023-06-24T08:44:43;12.15;;;7.95;;
54139;SDS011;40046;53.254;5.900;2023-06-24T08:47:10;10.68;;;6.60;;
54139;SDS011;40046;53.254;5.900;2023-06-24T08:49:45;10.45;;;8.32;;
54139;SDS011;40046;53.254;5.900;2023-06-24T08:52:14;10.80;;;8.65;;
54139;SDS011;40046;53.254;5.900;2023-06-24T08:54:43;9.20;;;7.20;;
54139;SDS011;40046;53.254;5.900;2023-06-24T08:57:10;10.95;;;7.15;;
54139;SDS011;40046;53.254;5.900;2023-06-24T08:59:40;11.40;;;7.50;;
54139;SDS011;40046;53.254;5.900;2023-06-24T09:02:06;9.57;;;8.45;;
54139;SDS011;40046;53.254;5.900;2023-06-24T09:04:33;10.25;;;8.45;;
54139;SDS011;40046;53.254;5.900;2023-06-24T09:06:59;12.15;;;7.70;;
54139;SDS011;40046;53.254;5.900;2023-06-24T09:09:25;10.65;;;8.07;;
54139;SDS011;40046;53.254;5.900;2023-06-24T09:11:58;12.98;;;8.20;;
54139;SDS011;40046;53.254;5.900;2023-06-24T09:14:24;14.02;;;8.27;;
54139;SDS011;40046;53.254;5.900;2023-06-24T09:16:51;10.10;;;7.32;;
54139;SDS011;40046;53.254;5.900;2023-06-24T09:19:24;9.77;;;7.38;;
54139;SDS011;40046;53.254;5.900;2023-06-24T09:21:53;14.25;;;6.70;;
54139;SDS011;40046;53.254;5.900;2023-06-24T09:24:19;12.10;;;8.07;;
54139;SDS011;40046;53.254;5.900;2023-06-24T09:26:45;7.30;;;6.00;;
54139;SDS011;40046;53.254;5.900;2023-06-24T09:29:12;13.88;;;7.53;;
54139;SDS011;40046;53.254;5.900;2023-06-24T09:31:46;7.55;;;5.78;;
54139;SDS011;40046;53.254;5.900;2023-06-24T09:34:13;8.00;;;6.65;;
54139;SDS011;40046;53.254;5.900;2023-06-24T09:36:50;9.57;;;7.45;;
54139;SDS011;40046;53.254;5.900;2023-06-24T09:39:16;8.85;;;7.60;;
54139;SDS011;40046;53.254;5.900;2023-06-24T09:41:43;9.65;;;7.45;;
54139;SDS011;40046;53.254;5.900;2023-06-24T09:44:10;13.80;;;7.20;;
54139;SDS011;40046;53.254;5.900;2023-06-24T09:46:37;7.15;;;5.60;;
54139;SDS011;40046;53.254;5.900;2023-06-24T09:49:04;9.25;;;5.97;;
54139;SDS011;40046;53.254;5.900;2023-06-24T09:51:32;8.70;;;5.95;;
54139;SDS011;40046;53.254;5.900;2023-06-24T09:53:58;9.35;;;6.38;;
54139;SDS011;40046;53.254;5.900;2023-06-24T09:56:25;7.65;;;6.07;;
54139;SDS011;40046;53.254;5.900;2023-06-24T09:58:51;11.50;;;7.30;;
54139;SDS011;40046;53.254;5.900;2023-06-24T10:01:17;10.68;;;6.82;;
54139;SDS011;40046;53.254;5.900;2023-06-24T10:03:44;10.27;;;6.90;;
54139;SDS011;40046;53.254;5.900;2023-06-24T10:06:10;7.50;;;5.60;;
54139;SDS011;40046;53.254;5.900;2023-06-24T10:08:36;7.88;;;5.18;;
54139;SDS011;40046;53.254;5.900;2023-06-24T10:11:03;8.95;;;6.25;;
54139;SDS011;40046;53.254;5.900;2023-06-24T10:13:29;7.05;;;5.53;;
54139;SDS011;40046;53.254;5.900;2023-06-24T10:15:55;7.75;;;5.50;;
54139;SDS011;40046;53.254;5.900;2023-06-24T10:18:32;9.45;;;6.40;;
54139;SDS011;40046;53.254;5.900;2023-06-24T10:20:59;11.90;;;6.03;;
54139;SDS011;40046;53.254;5.900;2023-06-24T10:26:08;10.18;;;6.35;;
54139;SDS011;40046;53.254;5.900;2023-06-24T10:31:19;8.05;;;5.50;;
54139;SDS011;40046;53.254;5.900;2023-06-24T10:47:37;7.57;;;5.57;;
54139;SDS011;40046;53.254;5.900;2023-06-24T10:50:13;10.38;;;6.85;;
54139;SDS011;40046;53.254;5.900;2023-06-24T10:52:44;8.95;;;5.63;;
54139;SDS011;40046;53.254;5.900;2023-06-24T10:55:10;7.07;;;5.20;;
54139;SDS011;40046;53.254;5.900;2023-06-24T10:57:36;7.22;;;4.72;;
54139;SDS011;40046;53.254;5.900;2023-06-24T11:00:03;6.60;;;4.55;;
54139;SDS011;40046;53.254;5.900;2023-06-24T11:02:29;9.68;;;6.28;;
54139;SDS011;40046;53.254;5.900;2023-06-24T11:04:57;5.95;;;5.15;;
54139;SDS011;40046;53.254;5.900;2023-06-24T11:07:30;7.63;;;5.25;;
54139;SDS011;40046;53.254;5.900;2023-06-24T11:10:03;6.90;;;4.72;;
54139;SDS011;40046;53.254;5.900;2023-06-24T11:12:34;8.82;;;6.18;;
54139;SDS011;40046;53.254;5.900;2023-06-24T11:15:04;5.68;;;3.88;;
54139;SDS011;40046;53.254;5.900;2023-06-24T11:17:31;7.25;;;3.95;;
54139;SDS011;40046;53.254;5.900;2023-06-24T11:19:58;4.97;;;3.40;;
54139;SDS011;40046;53.254;5.900;2023-06-24T11:22:24;5.80;;;3.88;;
54139;SDS011;40046;53.254;5.900;2023-06-24T11:24:51;4.65;;;3.20;;
54139;SDS011;40046;53.254;5.900;2023-06-24T11:27:27;5.40;;;2.90;;
54139;SDS011;40046;53.254;5.900;2023-06-24T11:29:53;7.38;;;3.67;;
54139;SDS011;40046;53.254;5.900;2023-06-24T11:32:20;6.50;;;4.28;;
54139;SDS011;40046;53.254;5.900;2023-06-24T11:34:47;10.32;;;3.88;;
54139;SDS011;40046;53.254;5.900;2023-06-24T11:37:14;7.43;;;3.78;;
54139;SDS011;40046;53.254;5.900;2023-06-24T11:39:41;7.40;;;3.85;;
54139;SDS011;40046;53.254;5.900;2023-06-24T11:42:07;8.48;;;4.15;;
54139;SDS011;40046;53.254;5.900;2023-06-24T11:44:34;5.60;;;3.67;;
54139;SDS011;40046;53.254;5.900;2023-06-24T11:47:04;4.40;;;3.38;;
54139;SDS011;40046;53.254;5.900;2023-06-24T11:49:30;7.47;;;3.83;;
54139;SDS011;40046;53.254;5.900;2023-06-24T11:51:57;7.10;;;4.22;;
54139;SDS011;40046;53.254;5.900;2023-06-24T11:54:23;6.10;;;4.13;;
54139;SDS011;40046;53.254;5.900;2023-06-24T11:56:50;10.15;;;4.35;;
54139;SDS011;40046;53.254;5.900;2023-06-24T12:01:43;7.00;;;4.65;;
54139;SDS011;40046;53.254;5.900;2023-06-24T12:04:10;5.32;;;3.28;;
54139;SDS011;40046;53.254;5.900;2023-06-24T12:06:36;6.60;;;3.25;;
54139;SDS011;40046;53.254;5.900;2023-06-24T12:09:02;7.18;;;3.35;;
54139;SDS011;40046;53.254;5.900;2023-06-24T12:11:28;7.13;;;6.00;;
54139;SDS011;40046;53.254;5.900;2023-06-24T12:13:54;6.45;;;4.15;;
54139;SDS011;40046;53.254;5.900;2023-06-24T12:16:21;5.93;;;4.07;;
54139;SDS011;40046;53.254;5.900;2023-06-24T12:18:48;5.95;;;3.70;;
54139;SDS011;40046;53.254;5.900;2023-06-24T12:21:14;4.93;;;3.58;;
54139;SDS011;40046;53.254;5.900;2023-06-24T12:23:40;6.75;;;3.88;;
54139;SDS011;40046;53.254;5.900;2023-06-24T12:26:06;7.93;;;4.85;;
54139;SDS011;40046;53.254;5.900;2023-06-24T12:28:33;10.75;;;5.05;;
54139;SDS011;40046;53.254;5.900;2023-06-24T12:30:59;6.43;;;4.20;;
54139;SDS011;40046;53.254;5.900;2023-06-24T12:33:25;7.10;;;3.60;;
54139;SDS011;40046;53.254;5.900;2023-06-24T12:35:51;7.10;;;4.25;;
54139;SDS011;40046;53.254;5.900;2023-06-24T12:38:17;6.20;;;4.28;;
54139;SDS011;40046;53.254;5.900;2023-06-24T12:40:43;6.88;;;4.85;;
54139;SDS011;40046;53.254;5.900;2023-06-24T12:43:10;8.27;;;4.72;;
54139;SDS011;40046;53.254;5.900;2023-06-24T12:45:37;5.38;;;3.47;;
54139;SDS011;40046;53.254;5.900;2023-06-24T12:48:04;6.20;;;4.18;;
54139;SDS011;40046;53.254;5.900;2023-06-24T12:50:30;8.02;;;3.75;;
54139;SDS011;40046;53.254;5.900;2023-06-24T12:52:57;6.40;;;3.47;;
54139;SDS011;40046;53.254;5.900;2023-06-24T12:55:23;6.53;;;3.13;;
54139;SDS011;40046;53.254;5.900;2023-06-24T12:57:49;6.50;;;3.70;;
54139;SDS011;40046;53.254;5.900;2023-06-24T13:00:15;6.47;;;3.97;;
54139;SDS011;40046;53.254;5.900;2023-06-24T13:02:45;5.18;;;3.40;;
54139;SDS011;40046;53.254;5.900;2023-06-24T13:05:11;6.18;;;3.80;;
54139;SDS011;40046;53.254;5.900;2023-06-24T13:07:37;5.35;;;3.33;;
54139;SDS011;40046;53.254;5.900;2023-06-24T13:10:03;9.70;;;4.50;;
54139;SDS011;40046;53.254;5.900;2023-06-24T13:12:34;9.20;;;3.22;;
54139;SDS011;40046;53.254;5.900;2023-06-24T13:15:01;5.93;;;3.70;;
54139;SDS011;40046;53.254;5.900;2023-06-24T13:17:29;5.38;;;3.25;;
54139;SDS011;40046;53.254;5.900;2023-06-24T13:19:55;6.78;;;3.90;;
54139;SDS011;40046;53.254;5.900;2023-06-24T13:22:22;5.93;;;4.03;;
54139;SDS011;40046;53.254;5.900;2023-06-24T13:24:49;9.63;;;3.97;;
54139;SDS011;40046;53.254;5.900;2023-06-24T13:27:15;7.38;;;5.05;;
54139;SDS011;40046;53.254;5.900;2023-06-24T13:29:42;4.43;;;3.00;;
54139;SDS011;40046;53.254;5.900;2023-06-24T13:32:08;5.63;;;3.78;;
54139;SDS011;40046;53.254;5.900;2023-06-24T13:34:35;8.07;;;3.33;;
54139;SDS011;40046;53.254;5.900;2023-06-24T13:37:01;4.55;;;2.80;;
54139;SDS011;40046;53.254;5.900;2023-06-24T13:39:27;6.38;;;3.33;;
54139;SDS011;40046;53.254;5.900;2023-06-24T13:41:53;6.40;;;3.50;;
54139;SDS011;40046;53.254;5.900;2023-06-24T13:44:20;6.13;;;2.97;;
54139;SDS011;40046;53.254;5.900;2023-06-24T13:46:46;7.32;;;3.13;;
54139;SDS011;40046;53.254;5.900;2023-06-24T13:49:12;7.07;;;3.28;;
54139;SDS011;40046;53.254;5.900;2023-06-24T13:51:38;6.32;;;3.45;;
54139;SDS011;40046;53.254;5.900;2023-06-24T13:54:05;6.80;;;3.45;;
54139;SDS011;40046;53.254;5.900;2023-06-24T13:56:31;5.30;;;3.78;;
54139;SDS011;40046;53.254;5.900;2023-06-24T13:58:57;6.85;;;4.22;;
54139;SDS011;40046;53.254;5.900;2023-06-24T14:01:23;6.97;;;4.35;;
54139;SDS011;40046;53.254;5.900;2023-06-24T14:03:50;6.32;;;3.70;;
54139;SDS011;40046;53.254;5.900;2023-06-24T14:06:17;6.65;;;3.38;;
54139;SDS011;40046;53.254;5.900;2023-06-24T14:08:44;3.63;;;2.92;;
54139;SDS011;40046;53.254;5.900;2023-06-24T14:11:10;4.88;;;3.15;;
54139;SDS011;40046;53.254;5.900;2023-06-24T14:13:37;5.88;;;2.67;;
54139;SDS011;40046;53.254;5.900;2023-06-24T14:16:03;6.05;;;3.72;;
54139;SDS011;40046;53.254;5.900;2023-06-24T14:18:30;4.43;;;2.72;;
54139;SDS011;40046;53.254;5.900;2023-06-24T14:20:57;4.97;;;3.08;;
54139;SDS011;40046;53.254;5.900;2023-06-24T14:23:23;4.65;;;2.88;;
54139;SDS011;40046;53.254;5.900;2023-06-24T14:25:51;4.65;;;3.25;;
54139;SDS011;40046;53.254;5.900;2023-06-24T14:28:17;6.95;;;2.85;;
54139;SDS011;40046;53.254;5.900;2023-06-24T14:30:43;5.50;;;3.78;;
54139;SDS011;40046;53.254;5.900;2023-06-24T14:33:11;6.25;;;3.05;;
54139;SDS011;40046;53.254;5.900;2023-06-24T14:35:37;6.28;;;3.55;;
54139;SDS011;40046;53.254;5.900;2023-06-24T14:38:04;4.90;;;3.47;;
54139;SDS011;40046;53.254;5.900;2023-06-24T14:40:31;8.40;;;2.95;;
54139;SDS011;40046;53.254;5.900;2023-06-24T14:42:57;5.30;;;3.47;;
54139;SDS011;40046;53.254;5.900;2023-06-24T14:45:23;6.55;;;4.55;;
54139;SDS011;40046;53.254;5.900;2023-06-24T14:47:49;7.97;;;4.95;;
54139;SDS011;40046;53.254;5.900;2023-06-24T14:50:16;4.82;;;3.08;;
54139;SDS011;40046;53.254;5.900;2023-06-24T14:52:42;5.22;;;3.03;;
54139;SDS011;40046;53.254;5.900;2023-06-24T14:55:08;4.07;;;3.13;;
54139;SDS011;40046;53.254;5.900;2023-06-24T14:57:35;6.20;;;3.10;;
54139;SDS011;40046;53.254;5.900;2023-06-24T15:00:01;4.72;;;2.80;;
54139;SDS011;40046;53.254;5.900;2023-06-24T15:02:27;6.45;;;3.95;;
54139;SDS011;40046;53.254;5.900;2023-06-24T15:04:54;9.60;;;3.60;;